createdAt,value
2018-01-24T00:00:29.497Z,9.90
2018-01-24T00:02:57.736Z,9.80
2018-01-24T00:05:25.198Z,9.80
2018-01-24T00:07:53.438Z,9.90
2018-01-24T00:10:20.892Z,9.90
2018-01-24T00:12:49.127Z,9.90
2018-01-24T00:15:16.591Z,9.90
2018-01-24T00:17:44.870Z,10.00
2018-01-24T00:20:13.135Z,10.10
2018-01-24T00:22:40.605Z,10.00
2018-01-24T00:25:08.204Z,10.10
2018-01-24T00:27:36.449Z,10.10
2018-01-24T00:30:03.951Z,10.10
2018-01-24T00:32:31.427Z,10.10
2018-01-24T00:34:58.994Z,10.10
2018-01-24T00:37:27.268Z,10.10
2018-01-24T00:39:55.508Z,10.10
2018-01-24T00:42:23.772Z,10.10
2018-01-24T00:44:52.012Z,10.10
2018-01-24T00:47:19.483Z,10.10
2018-01-24T00:49:47.032Z,10.10
2018-01-24T00:52:14.508Z,10.20
2018-01-24T00:54:42.008Z,10.20
2018-01-24T00:57:09.514Z,10.20
2018-01-24T00:59:36.989Z,10.20
2018-01-24T01:02:05.294Z,10.30
2018-01-24T01:04:32.797Z,10.30
2018-01-24T01:07:01.041Z,10.30
2018-01-24T01:09:28.592Z,10.30
2018-01-24T01:11:56.844Z,10.30
2018-01-24T01:14:25.123Z,10.30
2018-01-24T01:16:53.363Z,10.30
2018-01-24T01:19:20.855Z,10.30
2018-01-24T01:21:48.414Z,10.40
2018-01-24T01:24:16.648Z,10.40
2018-01-24T01:26:44.129Z,10.40
2018-01-24T01:29:11.665Z,10.50
2018-01-24T01:31:39.924Z,10.60
2018-01-24T01:34:08.172Z,10.60
2018-01-24T01:36:36.432Z,10.60
2018-01-24T01:39:04.662Z,10.70
2018-01-24T01:41:32.239Z,10.60
2018-01-24T01:44:00.497Z,10.70
2018-01-24T01:46:28.727Z,10.70
2018-01-24T01:48:56.192Z,10.70
2018-01-24T01:51:23.668Z,10.80
2018-01-24T01:53:51.171Z,10.80
2018-01-24T01:56:18.618Z,10.80
2018-01-24T01:58:46.085Z,10.80
2018-01-24T02:01:13.552Z,10.90
2018-01-24T02:03:41.020Z,10.90
2018-01-24T02:06:08.508Z,11.00
2018-01-24T02:08:36.036Z,10.90
2018-01-24T02:11:04.304Z,11.00
2018-01-24T02:13:32.556Z,11.10
2018-01-24T02:16:00.788Z,11.10
2018-01-24T02:18:28.361Z,11.10
2018-01-24T02:20:56.596Z,11.20
2018-01-24T02:23:24.067Z,11.20
2018-01-24T02:25:52.535Z,11.20
2018-01-24T02:28:20.763Z,11.30
2018-01-24T02:30:48.328Z,11.30
2018-01-24T02:33:16.592Z,11.40
2018-01-24T02:35:44.849Z,11.40
2018-01-24T02:38:24.980Z,11.40
2018-01-24T02:40:52.788Z,11.40
2018-01-24T02:43:20.251Z,11.40
2018-01-24T02:45:47.821Z,11.40
2018-01-24T02:48:16.085Z,11.50
2018-01-24T02:50:44.315Z,11.60
2018-01-24T02:53:11.780Z,11.50
2018-01-24T02:55:40.033Z,11.50
2018-01-24T02:58:07.504Z,11.50
2018-01-24T03:00:35.240Z,11.50
2018-01-24T03:03:03.542Z,11.50
2018-01-24T03:05:30.996Z,11.50
2018-01-24T03:07:58.580Z,11.50
2018-01-24T03:10:26.844Z,11.60
2018-01-24T03:12:55.149Z,11.60
2018-01-24T03:15:22.656Z,11.60
2018-01-24T03:17:50.912Z,11.70
2018-01-24T03:20:19.168Z,11.60
2018-01-24T03:22:47.427Z,11.60
2018-01-24T03:25:15.657Z,11.70
2018-01-24T03:27:43.115Z,11.70
2018-01-24T03:30:11.484Z,11.70
2018-01-24T03:32:39.723Z,11.70
2018-01-24T03:35:07.199Z,11.70
2018-01-24T03:37:35.448Z,11.70
2018-01-24T03:40:03.700Z,11.70
2018-01-24T03:42:31.252Z,11.80
2018-01-24T03:44:59.504Z,11.70
2018-01-24T03:47:26.980Z,11.70
2018-01-24T03:49:54.503Z,11.80
2018-01-24T03:52:22.762Z,11.90
2018-01-24T03:54:51.001Z,11.90
2018-01-24T03:57:18.459Z,11.90
2018-01-24T03:59:46.708Z,11.90
2018-01-24T04:02:14.276Z,11.90
2018-01-24T04:04:42.528Z,12.00
2018-01-24T04:07:10.076Z,12.00
2018-01-24T04:09:38.335Z,12.00
2018-01-24T04:12:06.596Z,11.90
2018-01-24T04:14:34.832Z,11.90
2018-01-24T04:17:02.392Z,11.90
2018-01-24T04:19:30.657Z,12.00
2018-01-24T04:21:58.919Z,12.00
2018-01-24T04:24:27.154Z,12.00
2018-01-24T04:26:54.643Z,11.90
2018-01-24T04:29:22.160Z,11.90
2018-01-24T04:31:50.399Z,12.00
2018-01-24T04:34:17.939Z,12.10
2018-01-24T04:36:45.416Z,12.10
2018-01-24T04:39:13.668Z,12.00
2018-01-24T04:41:41.905Z,12.00
2018-01-24T04:44:09.383Z,11.90
2018-01-24T04:46:36.856Z,11.90
2018-01-24T04:49:04.344Z,11.90
2018-01-24T04:51:31.817Z,11.80
2018-01-24T04:53:59.583Z,11.80
2018-01-24T04:56:27.072Z,11.70
2018-01-24T04:58:54.543Z,11.70
2018-01-24T05:01:22.041Z,11.70
2018-01-24T05:03:49.508Z,11.70
2018-01-24T05:06:17.740Z,11.50
2018-01-24T05:08:45.225Z,11.50
2018-01-24T05:11:12.696Z,11.40
2018-01-24T05:13:40.155Z,11.50
2018-01-24T05:16:07.639Z,11.50
2018-01-24T05:18:35.912Z,11.40
2018-01-24T05:21:04.936Z,11.40
2018-01-24T05:23:32.418Z,11.40
2018-01-24T05:26:00.772Z,11.50
2018-01-24T05:28:29.083Z,11.50
2018-01-24T05:30:56.597Z,11.50
2018-01-24T05:33:24.133Z,11.60
2018-01-24T05:35:52.382Z,11.60
2018-01-24T05:38:19.840Z,11.60
2018-01-24T05:40:48.136Z,11.50
2018-01-24T05:43:15.588Z,11.50
2018-01-24T05:45:43.071Z,11.60
2018-01-24T05:48:11.444Z,11.70
2018-01-24T05:50:38.912Z,11.70
2018-01-24T05:53:07.170Z,11.80
2018-01-24T05:55:34.670Z,11.70
2018-01-24T05:58:02.924Z,11.70
2018-01-24T06:00:31.183Z,11.70
2018-01-24T06:02:59.403Z,11.70
2018-01-24T06:05:26.986Z,11.70
2018-01-24T06:07:55.240Z,11.80
2018-01-24T06:10:23.472Z,11.80
2018-01-24T06:12:51.233Z,11.80
2018-01-24T06:15:18.716Z,11.80
2018-01-24T06:17:46.239Z,11.80
2018-01-24T06:20:14.546Z,11.90
2018-01-24T06:22:42.000Z,11.90
2018-01-24T06:25:09.480Z,11.90
2018-01-24T06:27:37.847Z,11.90
2018-01-24T06:30:05.416Z,11.90
2018-01-24T06:32:33.661Z,12.00
2018-01-24T06:35:01.216Z,12.00
2018-01-24T06:37:29.440Z,12.10
2018-01-24T06:39:57.012Z,12.00
2018-01-24T06:42:24.561Z,12.10
2018-01-24T06:44:52.788Z,12.20
2018-01-24T06:47:20.361Z,12.20
2018-01-24T06:49:49.561Z,12.20
2018-01-24T06:52:17.788Z,12.20
2018-01-24T06:54:45.256Z,12.20
2018-01-24T06:57:13.492Z,12.30
2018-01-24T06:59:41.056Z,12.30
2018-01-24T07:02:09.312Z,12.30
2018-01-24T07:04:37.543Z,12.30
2018-01-24T07:07:05.031Z,12.30
2018-01-24T07:09:32.497Z,12.30
2018-01-24T07:12:11.985Z,12.40
2018-01-24T07:14:42.129Z,12.50
2018-01-24T07:17:09.590Z,12.50
2018-01-24T07:19:37.060Z,12.40
2018-01-24T07:22:05.332Z,12.50
2018-01-24T07:24:33.561Z,12.40
2018-01-24T07:27:01.025Z,12.40
2018-01-24T07:29:28.537Z,12.40
2018-01-24T07:31:56.841Z,12.50
2018-01-24T07:34:24.308Z,12.40
2018-01-24T07:36:51.768Z,12.50
2018-01-24T07:39:19.328Z,12.60
2018-01-24T07:41:47.552Z,12.60
2018-01-24T07:44:15.033Z,12.60
2018-01-24T07:46:43.276Z,12.70
2018-01-24T07:49:10.847Z,12.60
2018-01-24T07:51:38.324Z,12.60
2018-01-24T07:54:05.800Z,12.70
2018-01-24T07:56:34.032Z,12.60
2018-01-24T07:59:01.492Z,12.60
2018-01-24T08:01:28.959Z,12.60
2018-01-24T08:03:56.440Z,12.70
2018-01-24T08:06:23.909Z,12.70
2018-01-24T08:08:51.377Z,12.70
2018-01-24T08:11:19.677Z,12.70
2018-01-24T08:13:47.176Z,12.70
2018-01-24T08:16:15.412Z,12.70
2018-01-24T08:18:42.886Z,12.70
2018-01-24T08:21:11.197Z,12.80
2018-01-24T08:23:38.693Z,12.80
2018-01-24T08:26:06.928Z,12.70
2018-01-24T08:28:35.156Z,12.80
2018-01-24T08:31:02.837Z,12.80
2018-01-24T08:33:30.384Z,12.80
2018-01-24T08:35:57.927Z,12.80
2018-01-24T08:38:26.188Z,12.90
2018-01-24T08:40:54.451Z,12.90
2018-01-24T08:43:22.711Z,13.00
2018-01-24T08:45:50.965Z,13.00
2018-01-24T08:48:19.233Z,13.00
2018-01-24T08:50:47.471Z,13.00
2018-01-24T08:53:14.949Z,13.00
2018-01-24T08:55:43.176Z,13.00
2018-01-24T08:58:10.709Z,13.00
2018-01-24T09:00:38.200Z,13.00
2018-01-24T09:03:05.684Z,13.20
2018-01-24T09:05:33.169Z,13.20
2018-01-24T09:08:01.424Z,13.30
2018-01-24T09:10:29.684Z,13.30
2018-01-24T09:12:57.953Z,13.30
2018-01-24T09:15:26.180Z,13.40
2018-01-24T09:17:53.639Z,13.40
2018-01-24T09:20:21.911Z,13.40
2018-01-24T09:22:50.136Z,13.50
2018-01-24T09:25:17.634Z,13.50
2018-01-24T09:27:45.087Z,13.60
2018-01-24T09:30:12.560Z,13.60
2018-01-24T09:32:40.040Z,13.60
2018-01-24T09:35:08.280Z,13.70
2018-01-24T09:37:35.741Z,13.70
2018-01-24T09:40:04.043Z,13.60
2018-01-24T09:42:31.548Z,13.60
2018-01-24T09:44:59.772Z,13.60
2018-01-24T09:47:27.286Z,13.60
2018-01-24T09:49:54.783Z,13.70
2018-01-24T09:52:23.053Z,13.60
2018-01-24T09:54:51.301Z,13.50
2018-01-24T09:57:19.566Z,13.50
2018-01-24T09:59:47.837Z,13.50
2018-01-24T10:02:16.087Z,13.60
2018-01-24T10:04:44.314Z,13.70
2018-01-24T10:07:11.787Z,13.70
2018-01-24T10:09:40.029Z,13.80
2018-01-24T10:12:07.588Z,13.80
2018-01-24T10:14:35.832Z,13.80
2018-01-24T10:17:03.419Z,13.80
2018-01-24T10:19:30.983Z,13.90
2018-01-24T10:21:58.443Z,13.80
2018-01-24T10:24:25.904Z,13.90
2018-01-24T10:26:53.388Z,13.80
2018-01-24T10:29:20.907Z,13.80
2018-01-24T10:31:49.178Z,13.90
2018-01-24T10:34:16.649Z,13.90
2018-01-24T10:36:44.156Z,13.90
2018-01-24T10:39:12.434Z,13.90
2018-01-24T10:41:39.911Z,13.90
2018-01-24T10:44:07.413Z,14.00
2018-01-24T10:46:34.884Z,14.10
2018-01-24T10:49:02.397Z,14.20
2018-01-24T10:51:30.636Z,14.40
2018-01-24T10:53:58.960Z,14.40
2018-01-24T10:56:26.380Z,14.40
2018-01-24T10:58:53.888Z,14.40
2018-01-24T11:01:22.144Z,14.50
2018-01-24T11:03:50.414Z,14.50
2018-01-24T11:06:18.767Z,14.50
2018-01-24T11:08:47.003Z,14.50
2018-01-24T11:11:14.469Z,14.50
2018-01-24T11:13:42.939Z,14.60
2018-01-24T11:16:11.167Z,14.60
2018-01-24T11:18:38.737Z,14.60
2018-01-24T11:21:07.004Z,14.80
2018-01-24T11:23:35.227Z,14.90
2018-01-24T11:26:02.694Z,14.90
2018-01-24T11:28:30.973Z,15.10
2018-01-24T11:30:58.504Z,15.10
2018-01-24T11:33:26.760Z,15.30
2018-01-24T11:35:54.992Z,15.20
2018-01-24T11:38:22.472Z,15.20
2018-01-24T11:40:50.728Z,15.20
2018-01-24T11:43:18.968Z,15.30
2018-01-24T11:45:46.441Z,15.20
2018-01-24T11:48:14.785Z,15.00
2018-01-24T11:50:43.046Z,15.00
2018-01-24T11:53:10.504Z,15.10
2018-01-24T11:55:38.749Z,15.20
2018-01-24T11:58:06.992Z,15.20
2018-01-24T12:00:34.563Z,15.10
2018-01-24T12:03:02.808Z,15.10
2018-01-24T12:05:30.358Z,15.10
2018-01-24T12:07:58.588Z,15.30
2018-01-24T12:10:26.160Z,15.30
2018-01-24T12:12:54.384Z,15.50
2018-01-24T12:15:21.909Z,15.50
2018-01-24T12:17:49.424Z,15.40
2018-01-24T12:20:16.956Z,15.40
2018-01-24T12:22:45.189Z,15.40
2018-01-24T12:25:12.651Z,15.40
2018-01-24T12:27:40.928Z,15.40
2018-01-24T12:30:09.173Z,15.30
2018-01-24T12:32:37.440Z,15.20
2018-01-24T12:35:05.795Z,15.10
2018-01-24T12:37:34.016Z,15.10
2018-01-24T12:40:01.485Z,15.10
2018-01-24T12:42:29.760Z,15.10
2018-01-24T12:44:58.015Z,15.10
2018-01-24T12:47:26.283Z,15.20
2018-01-24T12:49:54.508Z,15.10
2018-01-24T12:52:21.971Z,15.10
2018-01-24T12:54:49.445Z,15.10
2018-01-24T12:57:16.972Z,15.10
2018-01-24T12:59:45.226Z,14.90
2018-01-24T13:02:13.469Z,14.90
2018-01-24T13:04:40.988Z,14.90
2018-01-24T13:07:08.472Z,14.80
2018-01-24T13:09:36.708Z,15.00
2018-01-24T13:12:04.318Z,15.00
2018-01-24T13:14:31.775Z,14.90
2018-01-24T13:16:59.260Z,14.90
2018-01-24T13:19:27.516Z,14.80
2018-01-24T13:21:55.774Z,14.90
2018-01-24T13:24:23.323Z,14.90
2018-01-24T13:26:51.580Z,15.00
2018-01-24T13:29:19.886Z,14.90
2018-01-24T13:31:47.384Z,14.90
2018-01-24T13:34:15.632Z,14.90
2018-01-24T13:36:43.104Z,14.90
2018-01-24T13:39:10.564Z,14.90
2018-01-24T13:41:38.032Z,14.90
2018-01-24T13:44:05.499Z,15.00
2018-01-24T13:46:33.002Z,14.90
2018-01-24T13:49:00.496Z,15.00
2018-01-24T13:51:28.753Z,15.00
2018-01-24T13:53:56.995Z,14.90
2018-01-24T13:56:24.457Z,14.90
2018-01-24T13:58:52.698Z,14.90
2018-01-24T14:01:20.172Z,14.90
2018-01-24T14:03:47.680Z,14.90
2018-01-24T14:06:15.248Z,14.90
2018-01-24T14:08:43.505Z,14.90
2018-01-24T14:11:11.746Z,14.80
2018-01-24T14:13:39.228Z,14.80
2018-01-24T14:16:07.474Z,14.90
2018-01-24T14:18:35.720Z,14.80
2018-01-24T14:21:03.311Z,14.80
2018-01-24T14:23:30.800Z,14.90
2018-01-24T14:25:58.264Z,14.80
2018-01-24T14:28:26.528Z,14.80
2018-01-24T14:30:54.763Z,14.90
2018-01-24T14:33:22.233Z,14.80
2018-01-24T14:35:49.692Z,14.80
2018-01-24T14:38:17.192Z,14.80
2018-01-24T14:40:44.666Z,14.70
2018-01-24T14:43:12.175Z,14.80
2018-01-24T14:45:39.628Z,14.80
2018-01-24T14:48:07.864Z,14.80
2018-01-24T14:50:35.337Z,14.70
2018-01-24T14:53:03.581Z,14.70
2018-01-24T14:55:31.048Z,14.70
2018-01-24T14:57:58.568Z,14.70
2018-01-24T15:00:26.830Z,14.70
2018-01-24T15:02:55.053Z,14.60
2018-01-24T15:05:22.520Z,14.60
2018-01-24T15:07:50.083Z,14.60
2018-01-24T15:10:18.354Z,14.70
2018-01-24T15:12:46.572Z,14.60
2018-01-24T15:15:14.140Z,14.60
2018-01-24T15:17:42.415Z,14.70
2018-01-24T15:20:10.636Z,14.50
2018-01-24T15:22:38.128Z,14.50
2018-01-24T15:25:05.656Z,14.60
2018-01-24T15:27:33.915Z,14.50
2018-01-24T15:30:02.164Z,14.50
2018-01-24T15:32:30.402Z,14.50
2018-01-24T15:34:58.072Z,14.50
2018-01-24T15:37:26.333Z,14.40
2018-01-24T15:39:54.592Z,14.40
2018-01-24T15:42:22.900Z,14.40
2018-01-24T15:44:50.364Z,14.40
2018-01-24T15:47:17.831Z,14.30
2018-01-24T15:49:45.485Z,14.30
2018-01-24T15:52:13.735Z,14.20
2018-01-24T15:54:41.388Z,14.20
2018-01-24T15:57:09.616Z,14.20
2018-01-24T15:59:37.096Z,14.20
2018-01-24T16:07:50.279Z,14.10
2018-01-24T16:10:18.535Z,14.30
2018-01-24T16:12:46.055Z,14.20
2018-01-24T16:15:13.602Z,14.30
2018-01-24T16:17:41.115Z,14.30
2018-01-24T16:20:09.008Z,14.20
2018-01-24T16:22:36.500Z,14.20
2018-01-24T16:25:04.005Z,14.20
2018-01-24T16:27:31.519Z,14.10
2018-01-24T16:29:59.132Z,14.20
2018-01-24T16:46:49.006Z,14.20
2018-01-24T16:49:17.381Z,14.20
2018-01-24T16:51:45.010Z,14.20
2018-01-24T16:54:12.525Z,14.20
2018-01-24T16:56:40.775Z,14.20
2018-01-24T16:59:08.265Z,14.20
2018-01-24T17:01:35.813Z,14.20
2018-01-24T17:04:04.082Z,14.10
2018-01-24T17:06:32.607Z,14.10
2018-01-24T17:09:01.127Z,14.10
2018-01-24T17:11:28.706Z,14.10
2018-01-24T17:13:56.278Z,14.10
2018-01-24T17:16:23.856Z,14.10
2018-01-24T17:18:51.380Z,14.10
2018-01-24T17:21:19.805Z,14.00
2018-01-24T17:23:47.358Z,14.00
2018-01-24T17:26:14.911Z,14.00
2018-01-24T17:28:42.480Z,14.00
2018-01-24T17:34:00.271Z,14.00
2018-01-24T17:36:27.824Z,13.90
2018-01-24T17:38:55.351Z,13.90
2018-01-24T17:47:09.555Z,13.90
2018-01-24T17:49:37.098Z,13.90
2018-01-24T17:52:05.504Z,13.90
2018-01-24T17:54:33.123Z,13.90
2018-01-24T17:57:00.863Z,14.00
2018-01-24T17:59:29.287Z,14.00
2018-01-24T18:01:56.773Z,14.00
2018-01-24T18:04:24.278Z,14.10
2018-01-24T18:06:51.845Z,14.00
2018-01-24T18:09:19.353Z,14.00
2018-01-24T18:11:47.635Z,14.00
2018-01-24T18:14:15.125Z,14.00
2018-01-24T18:16:42.623Z,14.00
2018-01-24T18:19:10.115Z,14.00
2018-01-24T18:21:38.390Z,13.90
2018-01-24T18:24:06.652Z,13.90
2018-01-24T18:26:34.986Z,13.90
2018-01-24T18:29:02.502Z,13.90
2018-01-24T18:31:29.999Z,13.90
2018-01-24T18:33:57.500Z,14.00
2018-01-24T18:36:24.995Z,14.00
2018-01-24T18:38:53.367Z,14.00
2018-01-24T18:41:20.949Z,14.00
2018-01-24T18:43:48.436Z,14.00
2018-01-24T18:46:15.939Z,14.00
2018-01-24T18:48:44.206Z,13.90
2018-01-24T18:51:12.479Z,13.90
2018-01-24T18:53:39.979Z,13.90
2018-01-24T18:56:07.471Z,13.90
2018-01-24T18:58:35.297Z,13.80
2018-01-24T19:01:03.127Z,13.80
2018-01-24T19:03:30.670Z,13.80
2018-01-24T19:05:58.334Z,13.80
2018-01-24T19:08:25.847Z,13.80
2018-01-24T19:10:53.348Z,13.70
2018-01-24T19:13:20.935Z,13.60
2018-01-24T19:15:48.559Z,13.60
2018-01-24T19:18:16.255Z,13.60
2018-01-24T19:23:44.501Z,13.50
2018-01-24T19:26:11.993Z,13.60
2018-01-24T19:28:39.456Z,13.60
2018-01-24T19:31:06.952Z,13.60
2018-01-24T19:33:34.620Z,13.50
2018-01-24T19:36:02.085Z,13.60
2018-01-24T19:38:29.564Z,13.60
2018-01-24T19:40:57.098Z,13.50
2018-01-24T19:43:24.592Z,13.60
2018-01-24T19:45:52.860Z,13.60
2018-01-24T19:48:21.100Z,13.60
2018-01-24T19:50:48.560Z,13.60
2018-01-24T19:53:16.924Z,13.40
2018-01-24T19:55:45.189Z,13.50
2018-01-24T19:58:13.552Z,13.40
2018-01-24T20:00:41.795Z,13.50
2018-01-24T20:03:09.292Z,13.50
2018-01-24T20:05:36.988Z,13.50
2018-01-24T20:08:04.632Z,13.60
2018-01-24T20:10:32.180Z,13.50
2018-01-24T20:12:59.669Z,13.50
2018-01-24T20:15:27.129Z,13.60
2018-01-24T20:17:54.612Z,13.50
2018-01-24T20:20:22.867Z,13.50
2018-01-24T20:22:50.324Z,13.50
2018-01-24T20:25:18.548Z,13.50
2018-01-24T20:27:47.571Z,13.60
2018-01-24T20:30:15.810Z,13.60
2018-01-24T20:32:44.056Z,13.60
2018-01-24T20:35:11.526Z,13.60
2018-01-24T20:37:39.898Z,13.60
2018-01-24T20:40:08.129Z,13.60
2018-01-24T20:42:35.584Z,13.60
2018-01-24T20:45:03.824Z,13.60
2018-01-24T20:47:32.134Z,13.50
2018-01-24T20:49:59.588Z,13.50
2018-01-24T20:52:27.287Z,13.50
2018-01-24T20:54:55.531Z,13.50
2018-01-24T20:57:24.056Z,13.50
2018-01-24T20:59:51.532Z,13.50
2018-01-24T21:02:18.988Z,13.60
2018-01-24T21:04:46.472Z,13.50
2018-01-24T21:07:13.984Z,13.50
2018-01-24T21:09:42.236Z,13.50
2018-01-24T21:12:10.600Z,13.50
2018-01-24T21:14:38.827Z,13.50
2018-01-24T21:17:06.755Z,13.50
2018-01-24T21:19:34.232Z,13.50
2018-01-24T21:22:01.804Z,13.40
2018-01-24T21:24:30.045Z,13.40
2018-01-24T21:26:57.501Z,13.30
2018-01-24T21:29:35.708Z,13.40
2018-01-24T21:32:15.116Z,13.40
2018-01-24T21:36:05.052Z,13.40
2018-01-24T21:38:32.504Z,13.40
2018-01-24T21:40:59.992Z,13.40
2018-01-24T21:43:27.457Z,13.30
2018-01-24T21:45:55.164Z,13.30
2018-01-24T21:48:23.400Z,13.30
2018-01-24T21:50:50.947Z,13.30
2018-01-24T21:53:18.404Z,13.40
2018-01-24T21:55:46.700Z,13.30
2018-01-24T21:58:14.292Z,13.40
2018-01-24T22:00:41.848Z,13.40
2018-01-24T22:03:09.341Z,13.30
2018-01-24T22:05:36.812Z,13.40
2018-01-24T22:08:05.070Z,13.40
2018-01-24T22:10:32.520Z,13.30
2018-01-24T22:13:00.741Z,13.30
2018-01-24T22:15:28.366Z,13.30
2018-01-24T22:17:56.551Z,13.20
2018-01-24T22:20:24.007Z,13.10
2018-01-24T22:22:51.580Z,13.10
2018-01-24T22:25:19.872Z,13.10
2018-01-24T22:27:47.364Z,13.10
2018-01-24T22:30:14.918Z,13.00
2018-01-24T22:32:43.316Z,13.00
2018-01-24T22:35:10.808Z,13.00
2018-01-24T22:37:38.357Z,13.10
2018-01-24T22:40:05.901Z,13.10
2018-01-24T22:42:34.180Z,13.10
2018-01-24T22:45:01.917Z,13.10
2018-01-24T22:47:30.169Z,13.10
2018-01-24T22:49:57.716Z,13.10
2018-01-24T22:52:25.253Z,13.00
2018-01-24T22:54:52.746Z,13.00
2018-01-24T22:57:20.292Z,13.00
2018-01-24T22:59:47.777Z,13.00
2018-01-24T23:02:15.324Z,12.90
2018-01-24T23:04:42.869Z,12.90
2018-01-24T23:07:10.335Z,13.00
2018-01-24T23:09:38.558Z,13.10
2018-01-24T23:12:06.023Z,13.00
2018-01-24T23:14:34.277Z,13.00
2018-01-24T23:17:02.513Z,13.00
2018-01-24T23:19:30.068Z,13.00
2018-01-24T23:21:57.619Z,13.00
2018-01-24T23:24:25.075Z,13.00
2018-01-24T23:26:53.320Z,13.10
2018-01-24T23:29:20.890Z,13.10
2018-01-24T23:31:49.104Z,13.10
2018-01-24T23:34:16.557Z,13.10
2018-01-24T23:36:44.107Z,13.10
2018-01-24T23:39:11.664Z,13.10
2018-01-24T23:41:39.912Z,13.00
2018-01-24T23:44:08.188Z,13.10
2018-01-24T23:46:36.404Z,13.10
2018-01-24T23:49:03.860Z,13.10
2018-01-24T23:51:31.372Z,13.00
2018-01-24T23:53:58.928Z,13.00
2018-01-24T23:56:27.160Z,12.90
2018-01-24T23:58:54.722Z,12.90
